Home > Products > Valid Products > TAF

000
FTUS42 KFFC 232300
TAFPDK
TAF
KPDK 232335Z 2400/2424 32007KT P6SM SKC
     FM240200 00000KT P6SM SKC
     FM241400 10006KT P6SM SKC
     FM241800 16008KT P6SM FEW040
     FM242100 16007KT P6SM SCT060=



000
FTUS42 KFFC 232300
TAFAHN
TAF
KAHN 232335Z 2400/2424 VRB03KT P6SM SKC
     FM240700 05005KT P6SM SKC
     FM241400 10008KT P6SM SKC
     FM241800 13008KT P6SM FEW040
     FM242100 16007KT P6SM SCT060=



000
FTUS42 KFFC 232300
TAFCSG
TAF
KCSG 232335Z 2400/2424 30004KT P6SM SKC
     FM240200 VRB03KT P6SM SKC
     FM241500 10008KT P6SM SKC
     FM241600 13008KT P6SM FEW040
     FM241900 15007KT P6SM SCT060=



000
FTUS42 KFFC 232300
TAFATL
TAF
KATL 232335Z 2400/2506 32007KT P6SM SKC
     FM240600 02004KT P6SM SKC
     FM241400 10008KT P6SM SKC
     FM241800 16010KT P6SM FEW040
     FM242100 16007KT P6SM SCT060=



000
FTUS42 KFFC 232300
TAFFTY
TAF
KFTY 232335Z 2400/2424 32007KT P6SM SKC
     FM240200 00000KT P6SM SKC
     FM241400 10006KT P6SM SKC
     FM241800 16008KT P6SM FEW040
     FM242100 16007KT P6SM SCT060=



000
FTUS42 KFFC 232300
TAFMCN
TAF
KMCN 232335Z 2400/2424 30006KT P6SM SKC
     FM240200 VRB03KT P6SM SKC
     FM241500 10008KT P6SM SKC
     FM241600 13008KT P6SM FEW040
     FM241900 15007KT P6SM SCT060=



000
FTUS42 KFFC 232300
TAFRYY
TAF
KRYY 232335Z 2400/2424 32007KT P6SM SKC
     FM240200 00000KT P6SM SKC
     FM241400 10006KT P6SM SKC
     FM241800 16008KT P6SM FEW040
     FM242100 16007KT P6SM SCT060
      AMD NOT SKED 2404/2412=



000
FTUS42 KFFC 232100 AAB
TAFATL
TAF AMD
KATL 232130Z 2322/2424 33012G18KT P6SM SKC
     FM232300 32007KT P6SM SKC
     FM240700 02004KT P6SM SKC
     FM241400 10008KT P6SM SKC
     FM241800 16010KT P6SM SCT040=



000
FTUS42 KFFC 231900 AAA
TAFATL
TAF AMD
KATL 231952Z 2320/2424 33012G18KT P6SM SKC
     FM232300 32007KT P6SM SKC
     FM240700 02004KT P6SM SKC
     FM241400 10008KT P6SM SKC
     FM241800 16010KT P6SM SCT040=



000
FTUS42 KFFC 231900 AAA
TAFCSG
TAF AMD
KCSG 231921Z 2319/2418 35008G18KT P6SM SKC
     FM240000 35005KT P6SM SKC
     FM241000 04005KT P6SM SKC
     FM241500 12008KT P6SM SKC=



000
FTUS42 KFFC 231700
TAFMCN
TAF
KMCN 231739Z 2318/2418 30010KT P6SM SKC
     FM240000 VRB03KT P6SM SKC
     FM241100 04004KT P6SM SKC
     FM241500 10008KT P6SM SKC=



000
FTUS42 KFFC 231700
TAFATL
TAF
KATL 231739Z 2318/2424 33012G18KT P6SM SKC
     FM232300 32007KT P6SM SKC
     FM240700 02004KT P6SM SKC
     FM241400 10008KT P6SM SKC
     FM241800 16010KT P6SM SCT040=



000
FTUS42 KFFC 231700
TAFPDK
TAF
KPDK 231739Z 2318/2418 32010KT P6SM SKC
     FM232300 32004KT P6SM SKC
     FM240700 VRB03KT P6SM SKC
     FM241400 12006KT P6SM SKC=



000
FTUS42 KFFC 231700
TAFAHN
TAF
KAHN 231739Z 2318/2418 28008KT P6SM SKC
     FM240000 VRB03KT P6SM SKC
     FM240700 05005KT P6SM SKC
     FM241400 10008KT P6SM SKC=



000
FTUS42 KFFC 231700
TAFRYY
TAF
KRYY 231739Z 2318/2418 33008G16KT P6SM SKC
     FM232300 32004KT P6SM SKC
     FM240700 VRB03KT P6SM SKC
     FM241400 12006KT P6SM SKC=



000
FTUS42 KFFC 231700
TAFFTY
TAF
KFTY 231739Z 2318/2418 33008G16KT P6SM SKC
     FM232300 32004KT P6SM SKC
     FM240700 VRB03KT P6SM SKC
     FM241400 12006KT P6SM SKC=



000
FTUS42 KFFC 231700
TAFCSG
TAF
KCSG 231739Z 2318/2418 35008KT P6SM SKC
     FM240000 35005KT P6SM SKC
     FM241000 04005KT P6SM SKC
     FM241500 12008KT P6SM SKC=



000
FTUS42 KFFC 231500 AAB
TAFATL
TAF AMD
KATL 231551Z 2316/2418 33012KT P6SM SKC
     FM240700 02004KT P6SM SKC
     FM241400 10008KT P6SM SKC
     FM241700 16008KT P6SM SCT040=



000
FTUS42 KFFC 231300 AAA
TAFATL
TAF AMD
KATL 231353Z 2314/2418 32010KT P6SM SKC
     FM240700 02004KT P6SM SKC
     FM241400 10008KT P6SM SKC
     FM241700 16008KT P6SM SCT040=



000
FTUS42 KFFC 231100
TAFFTY
TAF
KFTY 231126Z 2312/2412 33006KT P6SM SKC
     FM240700 02005KT P6SM SKC
     FM240800 06005KT P6SM SKC=



000
FTUS42 KFFC 231100
TAFPDK
TAF
KPDK 231126Z 2312/2412 32006KT P6SM SKC
     FM240500 02005KT P6SM SKC
     FM240800 07005KT P6SM SKC=



000
FTUS42 KFFC 231100
TAFRYY
TAF
KRYY 231126Z 2312/2412 33007KT P6SM SKC
     FM240700 02005KT P6SM SKC
     FM240800 07005KT P6SM SKC=



000
FTUS42 KFFC 231100
TAFAHN
TAF
KAHN 231126Z 2312/2412 32006KT P6SM SKC
     FM240000 28005KT P6SM SKC
     FM240200 32005KT P6SM SKC
     FM240400 36006KT P6SM SKC
     FM240500 05006KT P6SM SKC=



000
FTUS42 KFFC 231100
TAFATL
TAF
KATL 231126Z 2312/2418 32010KT P6SM SKC
     FM240700 02004KT P6SM SKC
     FM241400 10008KT P6SM SKC
     FM241700 16008KT P6SM SCT040=



000
FTUS42 KFFC 231100
TAFMCN
TAF
KMCN 231126Z 2312/2412 31006KT 4SM BR FEW005
     FM231400 33007KT P6SM FEW012
     FM240000 32005KT P6SM SKC
     FM240800 02006KT P6SM SKC
     FM241100 06007KT P6SM SKC=



000
FTUS42 KFFC 231100
TAFCSG
TAF
KCSG 231126Z 2312/2412 33006KT 4SM BR SCT005
      TEMPO 2312/2313 BKN005
     FM231300 34006KT P6SM SKC
     FM231600 35008KT P6SM SKC
     FM232100 31007KT P6SM SKC
     FM240200 36005KT P6SM SKC
     FM241000 04006KT P6SM SKC=



000
FTUS42 KFFC 231000 AAC
TAFMCN
TAF AMD
KMCN 231047Z 2311/2406 28004KT 3SM BR SKC
     FM231200 33007KT P6SM FEW012
     FM240000 32005KT P6SM SKC=



000
FTUS42 KFFC 230900 AAB
TAFMCN
TAF AMD
KMCN 230931Z 2310/2406 28004KT 1SM BR FEW003
      TEMPO 2310/2311 1/4SM FG BKN003
     FM231200 33007KT P6SM FEW012
     FM240000 32005KT P6SM SKC=



000
FTUS42 KFFC 230900 AAB
TAFATL
TAF AMD
KATL 230930Z 2310/2412 31008KT P6SM FEW005
     FM231100 33008KT P6SM SKC
     FM240700 02004KT P6SM SKC
     FM241000 06005KT P6SM SKC=



000
FTUS42 KFFC 230800 AAA
TAFMCN
TAF AMD
KMCN 230801Z 2308/2406 28004KT 2SM BR FEW003
      TEMPO 2308/2310 3/4SM BR BKN003
     FM231200 33007KT P6SM FEW012
     FM240000 32005KT P6SM SKC=



000
FTUS42 KFFC 230700 AAA
TAFATL
TAF AMD
KATL 230730Z 2308/2412 31008KT P6SM FEW012
     FM231300 33008KT P6SM SKC
     FM240700 02004KT P6SM SKC
     FM241000 06005KT P6SM SKC=



000
FTUS42 KFFC 230500
TAFCSG
TAF
KCSG 230522Z 2306/2406 30004KT 6SM BR SKC
     FM230900 30004KT 4SM BR FEW012
     FM231300 34006KT P6SM FEW250
     FM231600 35008KT P6SM SKC
     FM232100 31007KT P6SM SKC
     FM240200 36005KT P6SM SKC=



000
FTUS42 KFFC 230500
TAFRYY
TAF
KRYY 230522Z 2306/2406 27005KT P6SM SKC
     FM230900 32006KT 6SM BR SKC
     FM231500 32010KT P6SM SKC
     FM232300 32006KT P6SM SKC
      AMD NOT SKED TIL 231200=



000
FTUS42 KFFC 230500
TAFPDK
TAF
KPDK 230522Z 2306/2406 29006KT 4SM BR SKC
     FM231000 32006KT 5SM BR SKC
     FM231200 32006KT P6SM SKC
     FM240500 02005KT P6SM SKC=



000
FTUS42 KFFC 230500
TAFMCN
TAF
KMCN 230522Z 2306/2406 28004KT 1/4SM FG BKN003
     FM231200 32006KT 1/2SM FG FEW003
     FM231400 33007KT P6SM FEW012
     FM240000 32005KT P6SM SKC=



000
FTUS42 KFFC 230500
TAFFTY
TAF
KFTY 230522Z 2306/2406 29005KT P6SM SKC
     FM230900 32006KT 4SM BR FEW012
     FM231200 33006KT P6SM SKC=



000
FTUS42 KFFC 230500
TAFAHN
TAF
KAHN 230522Z 2306/2406 28004KT P6SM SKC
     FM230800 29004KT 6SM BR FEW005
     FM231400 31007KT P6SM SKC
     FM240400 36006KT P6SM SKC
     FM240500 05006KT P6SM SKC=



000
FTUS42 KFFC 230500
TAFATL
TAF
KATL 230522Z 2306/2412 28004KT P6SM FEW250
     FM230800 30004KT P6SM FEW012
     FM231300 33008KT P6SM SKC
     FM240700 02004KT P6SM SKC
     FM241000 06005KT P6SM SKC=



000
FTUS42 KFFC 230300 AAB
TAFATL
TAF AMD
KATL 230358Z 2304/2406 28007KT P6SM SCT080
     FM230800 32009KT P6SM SKC
     FM231500 35010G17KT P6SM FEW040
     FM232200 32008KT P6SM SKC=



000
FTUS42 KFFC 230200 AAB
TAFMCN
TAF AMD
KMCN 230256Z 2303/2324 00000KT 1SM BR FEW005
      TEMPO 2303/2307 1/4SM FG VV004
     FM230900 30005KT 3SM BR FEW010
     FM231400 34010KT P6SM FEW035
     FM232100 31007KT P6SM SKC=



000
FTUS42 KFFC 230200 AAA
TAFMCN
TAF AMD
KMCN 230205Z 2302/2324 00000KT 2SM BR FEW005
      TEMPO 2302/2306 1/2SM FG VV004
     FM230900 30005KT 4SM BR SKC
     FM231500 34010G15KT P6SM FEW040
     FM232100 31007KT P6SM SKC=



000
FTUS42 KFFC 230200 AAA
TAFAHN
TAF AMD
KAHN 230202Z 2302/2324 26004KT P6SM SCT070
     FM230500 29006KT P6SM SKC
     FM231500 32010KT P6SM FEW040
     FM232100 29007KT P6SM SKC=



000
FTUS42 KFFC 230200 AAA
TAFPDK
TAF AMD
KPDK 230201Z 2302/2324 27004KT P6SM SCT080
     FM230500 31006KT P6SM SKC
     FM231500 34010G15KT P6SM FEW040
     FM232200 32007KT P6SM SKC=



000
FTUS42 KFFC 230200 AAA
TAFRYY
TAF AMD
KRYY 230201Z 2302/2324 27004KT P6SM SCT080
     FM230500 30006KT P6SM SKC
     FM231500 34010G15KT P6SM FEW040
     FM232200 32007KT P6SM SKC
      AMD NOT SKED 2304/2312=



000
FTUS42 KFFC 230200 AAA
TAFFTY
TAF AMD
KFTY 230200Z 2302/2324 28004KT P6SM SCT080
     FM230500 32006KT P6SM SKC
     FM231500 35010G15KT P6SM FEW040
     FM232200 32007KT P6SM SKC=



000
FTUS42 KFFC 230100 AAA
TAFATL
TAF AMD
KATL 230132Z 2302/2406 28007KT P6SM SCT080
     FM230500 32009KT P6SM SKC
     FM231500 35010G17KT P6SM FEW040
     FM232200 32008KT P6SM SKC=



000
FTUS42 KFFC 222300
TAFPDK
TAF
KPDK 222324Z 2300/2324 28006KT P6SM SCT025 BKN060
      TEMPO 2300/2303 -RA BKN025
     FM230500 32007KT P6SM SCT035
     FM231500 35010G15KT P6SM FEW040
     FM232100 32007KT P6SM SKC=



000
FTUS42 KFFC 222300
TAFMCN
TAF
KMCN 222324Z 2300/2324 27006KT P6SM SCT035 BKN080
      TEMPO 2300/2304 -RA BKN035
     FM230600 30007KT P6SM SCT035
     FM231500 34010G15KT P6SM FEW040
     FM232100 31007KT P6SM SKC=



000
FTUS42 KFFC 222300
TAFATL
TAF
KATL 222324Z 2300/2406 28010KT P6SM SCT025 BKN060
      TEMPO 2300/2303 -RA BKN025
     FM230500 32010KT P6SM SCT035
     FM231500 35010G17KT P6SM FEW040
     FM232200 32008KT P6SM SKC=



000
FTUS42 KFFC 222300
TAFRYY
TAF
KRYY 222324Z 2300/2324 28006KT P6SM SCT025 BKN060
      TEMPO 2300/2303 -RA BKN025
     FM230500 32007KT P6SM SCT035
     FM231500 35010G15KT P6SM FEW040
     FM232100 32007KT P6SM SKC
      AMD NOT SKED 2304/2312=



000
FTUS42 KFFC 222300
TAFFTY
TAF
KFTY 222324Z 2300/2324 28006KT P6SM SCT025 BKN060
      TEMPO 2300/2303 -RA BKN025
     FM230500 32007KT P6SM SCT035
     FM231500 35010G15KT P6SM FEW040
     FM232100 32007KT P6SM SKC=



000
FTUS42 KFFC 222300
TAFCSG
TAF
KCSG 222324Z 2300/2324 28006KT P6SM SCT035 BKN070
      TEMPO 2300/2304 -RA BKN035
     FM230600 31007KT P6SM SCT035
     FM231500 34010G15KT P6SM FEW040
     FM232100 31007KT P6SM SKC=



000
FTUS42 KFFC 222300
TAFAHN
TAF
KAHN 222324Z 2300/2324 26006KT P6SM SCT035 BKN070
      TEMPO 2300/2303 -RA BKN035
     FM230500 29007KT P6SM SCT035
     FM231500 32010KT P6SM FEW040
     FM232100 29007KT P6SM SKC=



000
FTUS42 KFFC 222200 AAC
TAFFTY
TAF AMD
KFTY 222207Z 2222/2318 27006KT P6SM SCT015 BKN040
      TEMPO 2222/2224 6SM -RA BR BKN015
     FM230000 30008KT P6SM SCT025 BKN050
     FM230300 32006KT P6SM FEW035
     FM231400 34010KT P6SM FEW040=



000
FTUS42 KFFC 222200 AAD
TAFPDK
TAF AMD
KPDK 222207Z 2222/2318 27007KT P6SM SCT015 BKN050
      TEMPO 2222/2224 6SM -RA BR BKN015
     FM230000 30008KT P6SM SCT025 BKN070
     FM230300 32006KT P6SM FEW035
     FM231400 34010KT P6SM FEW040=



000
FTUS42 KFFC 222200 AAD
TAFATL
TAF AMD
KATL 222206Z 2222/2324 29009KT P6SM SCT015 BKN045
      TEMPO 2222/2224 6SM -RA BR BKN015
     FM230000 30009KT P6SM SCT025 BKN050
     FM230300 32008KT P6SM FEW035
     FM231400 34010KT P6SM FEW040=



000
FTUS42 KFFC 222100 AAC
TAFPDK
TAF AMD
KPDK 222106Z 2221/2318 28007KT P6SM SCT010 BKN050
      TEMPO 2221/2224 5SM -SHRA BR BKN010
     FM230000 30008KT P6SM SCT025 BKN070
     FM230300 32006KT P6SM FEW035
     FM231400 34010KT P6SM FEW040=



000
FTUS42 KFFC 222100 AAA
TAFCSG
TAF AMD
KCSG 222105Z 2221/2318 24007KT P6SM VCSH SCT025 BKN050
      TEMPO 2221/2224 3SM SHRA BR BKN025
     FM230000 27008KT P6SM SCT030 BKN060
     FM230400 30006KT P6SM SCT035
     FM231400 33010KT P6SM SCT040=



000
FTUS42 KFFC 222100 AAA
TAFMCN
TAF AMD
KMCN 222101Z 2221/2318 30010KT 4SM -SHRA BR SCT015 BKN040
      TEMPO 2221/2223 32014G24KT 2SM -TSRA BR BKN015CB
     FM230000 30008KT P6SM VCSH SCT025 BKN050
     FM230500 30005KT P6SM SCT035 BKN070
     FM231400 33010KT P6SM SCT040=



000
FTUS42 KFFC 222000 AAA
TAFAHN
TAF AMD
KAHN 222053Z 2221/2318 28006KT P6SM SCT035 BKN070
      TEMPO 2221/2224 6SM -SHRA BR BKN035
     FM230000 30007KT P6SM SCT025 BKN050
     FM230300 30005KT P6SM FEW035
     FM231400 29009KT P6SM FEW040=



000
FTUS42 KFFC 222000 AAA
TAFRYY
TAF AMD
KRYY 222050Z 2221/2318 28008KT P6SM SCT012 BKN035
      TEMPO 2221/2224 4SM SHRA BR BKN012
     FM230000 30009KT P6SM SCT025 BKN050
     FM230300 32006KT P6SM FEW035
     FM231400 34010KT P6SM FEW040=



000
FTUS42 KFFC 222000 AAB
TAFPDK
TAF AMD
KPDK 222048Z 2221/2318 28007KT P6SM SCT010 BKN040
      TEMPO 2221/2224 4SM SHRA BR BKN009
     FM230000 30008KT P6SM SCT025 BKN050
     FM230300 32006KT P6SM FEW035
     FM231400 34010KT P6SM FEW040=



000
FTUS42 KFFC 222000 AAB
TAFFTY
TAF AMD
KFTY 222047Z 2221/2318 27007KT P6SM SCT015 BKN040
      TEMPO 2221/2224 4SM SHRA BR BKN015
     FM230000 30008KT P6SM SCT025 BKN050
     FM230300 32006KT P6SM FEW035
     FM231400 34010KT P6SM FEW040=



000
FTUS42 KFFC 222000 AAC
TAFATL
TAF AMD
KATL 222045Z 2221/2324 29009KT P6SM -RA SCT015 BKN040
      TEMPO 2221/2224 4SM SHRA BR BKN015
     FM230000 30009KT P6SM SCT025 BKN050
     FM230300 32008KT P6SM FEW035
     FM231400 34010KT P6SM FEW040=



000
FTUS42 KFFC 221900 AAB
TAFATL
TAF AMD
KATL 221956Z 2220/2324 30012KT 6SM -RA SCT009 BKN030 BKN050
      TEMPO 2220/2222 3SM -TSRA BKN009CB
     FM222200 29010KT 6SM -SHRA BKN035
     FM230000 27008KT P6SM SCT035
     FM230300 32008KT P6SM FEW030
     FM231400 34010KT P6SM FEW040=



000
FTUS42 KFFC 221900 AAA
TAFPDK
TAF AMD
KPDK 221946Z 2220/2318 29010KT 5SM -SHRA SCT007 BKN025 BKN060
      TEMPO 2220/2222 3SM -TSRA BR BKN007CB
     FM222200 29010KT 6SM -SHRA BKN035
     FM230000 27008KT P6SM SCT035
     FM230300 32008KT P6SM FEW030
     FM231400 34010KT P6SM FEW040=



000
FTUS42 KFFC 221900 AAA
TAFFTY
TAF AMD
KFTY 221945Z 2220/2318 29010KT 5SM -SHRA SCT010 BKN025 OVC060
      TEMPO 2220/2222 3SM -TSRA BR BKN010CB
     FM222200 29008KT 6SM -SHRA BKN035
     FM230000 27006KT P6SM SCT035
     FM230300 32005KT P6SM FEW030
     FM231400 34010KT P6SM FEW040=



000
FTUS42 KFFC 221900 AAA
TAFATL
TAF AMD
KATL 221906Z 2219/2324 30012KT 6SM -RA SCT009 BKN035 BKN050
      TEMPO 2219/2221 3SM -TSRA BKN015CB
     FM222100 29010KT 6SM -SHRA BKN035
     FM230000 27008KT P6SM SCT035
     FM230300 32008KT P6SM FEW030
     FM231400 34010KT P6SM FEW040=



000
FTUS42 KFFC 221700
TAFAHN
TAF
KAHN 221735Z 2218/2318 26010KT 6SM -SHRA BKN035 BKN080
      TEMPO 2218/2222 3SM -TSRA BR BKN015CB
     FM222200 29010KT 6SM -SHRA BKN035
     FM230000 27006KT P6SM SCT035
     FM230300 28005KT P6SM FEW030
     FM231400 29010KT P6SM FEW040=



000
FTUS42 KFFC 221700
TAFCSG
TAF
KCSG 221735Z 2218/2318 26012KT P6SM BKN050
     FM222000 28012KT P6SM BKN035 OVC080
      TEMPO 2220/2224 3SM -TSRA BKN015CB
     FM230000 27007KT P6SM BKN025
     FM230400 29005KT P6SM BKN035
     FM231400 32010KT P6SM SCT040=



000
FTUS42 KFFC 221700
TAFFTY
TAF
KFTY 221735Z 2218/2318 29010KT 6SM -SHRA BKN025 OVC060
      TEMPO 2218/2221 3SM -TSRA BR BKN015CB
     FM222100 29008KT 6SM -SHRA BKN035
     FM230000 27006KT P6SM SCT035
     FM230300 32005KT P6SM FEW030
     FM231400 34010KT P6SM FEW040=



000
FTUS42 KFFC 221700
TAFATL
TAF
KATL 221735Z 2218/2324 30012KT 6SM -RA BKN035 BKN050
      TEMPO 2218/2221 3SM -TSRA BKN015CB
     FM222100 29010KT 6SM -SHRA BKN035
     FM230000 27008KT P6SM SCT035
     FM230300 32008KT P6SM FEW030
     FM231400 34010KT P6SM FEW040=



000
FTUS42 KFFC 221700
TAFRYY
TAF
KRYY 221735Z 2218/2318 30010KT 6SM -SHRA BKN015 OVC080
      TEMPO 2218/2221 3SM -TSRA BR BKN010CB
     FM222100 29010KT 6SM -SHRA BKN035
     FM230000 27008KT P6SM SCT035
     FM230300 32008KT P6SM FEW030
     FM231400 34010KT P6SM FEW040=



000
FTUS42 KFFC 221700
TAFPDK
TAF
KPDK 221735Z 2218/2318 29010KT 6SM -SHRA BKN025 BKN060
      TEMPO 2218/2221 3SM -TSRA BR BKN015CB
     FM222100 29010KT 6SM -SHRA BKN035
     FM230000 27008KT P6SM SCT035
     FM230300 32008KT P6SM FEW030
     FM231400 34010KT P6SM FEW040=



000
FTUS42 KFFC 221700
TAFMCN
TAF
KMCN 221735Z 2218/2318 25007KT P6SM BKN050 BKN120
     FM222000 28012KT P6SM BKN035 OVC080
      TEMPO 2220/2224 3SM -TSRA BKN015CB
     FM230000 27007KT P6SM BKN025
     FM230400 29005KT P6SM BKN035
     FM231400 32010KT P6SM SCT040=



000
FTUS42 KFFC 221600 AAA
TAFPDK
TAF AMD
KPDK 221617Z 2216/2312 29010KT 6SM -SHRA BKN025 BKN060
      TEMPO 2217/2221 3SM -TSRA BR BKN015CB
     FM222100 27009KT P6SM BKN035
     FM230000 28008KT P6SM SCT025
     FM230500 32010KT P6SM FEW030=



000
FTUS42 KFFC 221600 AAA
TAFFTY
TAF AMD
KFTY 221601Z 2216/2312 29010KT 6SM -SHRA BKN025 OVC060
      TEMPO 2217/2221 3SM -TSRA BR BKN015CB
     FM222100 27009KT P6SM BKN035
     FM230000 28008KT P6SM SCT035
     FM230400 32009KT P6SM FEW030=



000
FTUS42 KFFC 221500 AAA
TAFRYY
TAF AMD
KRYY 221559Z 2216/2312 30010KT 6SM -SHRA BKN020 OVC080
      TEMPO 2217/2220 3SM -TSRA BR BKN015CB
     FM222100 27009KT P6SM BKN035
     FM222300 28009KT P6SM SCT035
     FM230300 32009KT P6SM FEW030=



000
FTUS42 KFFC 221500 AAB
TAFATL
TAF AMD
KATL 221558Z 2216/2318 30012KT 6SM -RA BKN035 BKN120
      TEMPO 2218/2221 3SM -TSRA BKN025CB
     FM222100 27009KT 6SM -SHRA BKN035
     FM230000 27008KT P6SM SCT035
     FM230300 32008KT P6SM FEW030=



000
FTUS42 KFFC 221300 AAA
TAFATL
TAF AMD
KATL 221359Z 2214/2318 28008KT P6SM SCT050 BKN120
     FM221700 27008KT 6SM -SHRA BKN045
      TEMPO 2218/2221 3SM -TSRA BKN025CB
     FM222100 27009KT 6SM -SHRA BKN035
     FM230000 27008KT P6SM SCT035
     FM230300 32008KT P6SM FEW030=



000
FTUS42 KFFC 221100
TAFATL
TAF
KATL 221129Z 2212/2318 27006KT P6SM SCT050 BKN120
     FM221500 28008KT P6SM VCSH BKN050
     FM221700 27008KT 6SM -SHRA OVC035
      TEMPO 2218/2221 3SM -TSRA BKN025CB
     FM222100 27009KT P6SM BKN035
     FM230000 27008KT P6SM SCT035
     FM230300 32008KT P6SM FEW030=



000
FTUS42 KFFC 221100
TAFFTY
TAF
KFTY 221129Z 2212/2312 VRB03KT P6SM SCT050 BKN120
     FM221400 29008KT P6SM VCSH BKN050
     FM221700 27008KT 6SM -SHRA OVC035
      TEMPO 2218/2221 3SM -TSRA BR BKN025CB
     FM222100 27009KT P6SM BKN035
     FM230000 28008KT P6SM SCT035
     FM230400 32009KT P6SM FEW030=



000
FTUS42 KFFC 221100
TAFMCN
TAF
KMCN 221129Z 2212/2312 00000KT P6SM BKN120
     FM221500 25006KT P6SM SCT050 BKN120
     FM222000 28010KT P6SM VCTS BKN050CB
     FM230000 27007KT P6SM BKN025
     FM230200 27007KT P6SM SCT025=



000
FTUS42 KFFC 221100
TAFPDK
TAF
KPDK 221129Z 2212/2312 VRB03KT P6SM SCT050 BKN120
     FM221500 29008KT P6SM VCSH BKN050
     FM221700 27007KT 6SM -SHRA OVC035
      TEMPO 2218/2221 3SM -TSRA BR BKN025CB
     FM222100 27009KT P6SM BKN035
     FM230000 28008KT P6SM SCT025
     FM230500 32010KT P6SM FEW030=



000
FTUS42 KFFC 221100
TAFCSG
TAF
KCSG 221129Z 2212/2312 00000KT P6SM SCT050 BKN120
     FM221600 26008KT P6SM VCSH BKN050CB
     FM222000 26008KT P6SM VCTS OVC045CB
     FM230000 27007KT P6SM BKN025
     FM230200 28007KT P6SM SCT025
     FM230500 32007KT P6SM FEW030=



000
FTUS42 KFFC 221100
TAFAHN
TAF
KAHN 221129Z 2212/2312 00000KT P6SM SCT050 BKN120
     FM221500 30010KT P6SM VCSH BKN050
     FM221800 26008KT 6SM -SHRA OVC035
      TEMPO 2218/2221 3SM -TSRA BR BKN025CB
     FM222100 26009KT P6SM BKN035
     FM230000 26007KT P6SM BKN025
     FM230100 27007KT P6SM SCT025=



000
FTUS42 KFFC 221100
TAFRYY
TAF
KRYY 221129Z 2212/2312 00000KT P6SM SCT050 BKN120
     FM221400 30007KT P6SM VCSH OVC050
     FM221600 29007KT 6SM -SHRA OVC035
      TEMPO 2217/2220 3SM -TSRA BR BKN025CB
     FM222100 27009KT P6SM BKN035
     FM222300 28009KT P6SM SCT035
     FM230300 32009KT P6SM FEW030=



000
FTUS42 KFFC 220900 AAB
TAFATL
TAF AMD
KATL 220930Z 2210/2312 25004KT P6SM FEW060 SCT120
     FM221300 27007KT P6SM BKN050
     FM221500 28008KT P6SM VCSH BKN035
     FM221700 27008KT 6SM -SHRA OVC035
      TEMPO 2218/2221 3SM -TSRA BKN025CB
     FM222100 27009KT P6SM BKN035
     FM230000 27008KT P6SM SCT025
     FM230300 31008KT P6SM FEW030=



000
FTUS42 KFFC 220700 AAA
TAFATL
TAF AMD
KATL 220730Z 2208/2312 25004KT P6SM FEW060 SCT120
     FM221300 27007KT P6SM BKN050
     FM221500 28008KT P6SM VCSH BKN035
     FM221700 27008KT 6SM -SHRA OVC035 PROB30 2218/2221 3SM -TSRA
      BKN025CB
     FM222100 27009KT P6SM BKN035
     FM230000 27008KT P6SM SCT025
     FM230300 31008KT P6SM FEW030=



000
FTUS42 KFFC 220500
TAFPDK
TAF
KPDK 220522Z 2206/2306 00000KT P6SM FEW250
     FM221100 26003KT P6SM BKN060
     FM221500 29008KT P6SM VCSH OVC035
     FM221700 27007KT 6SM -SHRA OVC035 PROB30 2218/2221 3SM -TSRA BR
      BKN025CB
     FM222100 27009KT P6SM BKN035
     FM230000 28008KT P6SM SCT025
     FM230500 32010KT P6SM FEW030=



000
FTUS42 KFFC 220500
TAFFTY
TAF
KFTY 220522Z 2206/2306 00000KT P6SM FEW250
     FM221100 25003KT P6SM BKN060
     FM221400 29008KT P6SM VCSH BKN035
     FM221700 27008KT 6SM -SHRA OVC035 PROB30 2218/2221 3SM -TSRA BR
      BKN025CB
     FM222100 27009KT P6SM BKN035
     FM230000 28008KT P6SM SCT025
     FM230400 32009KT P6SM FEW030=



000
FTUS42 KFFC 220500
TAFCSG
TAF
KCSG 220522Z 2206/2306 00000KT P6SM FEW250
     FM221300 26006KT P6SM BKN040
     FM221600 26008KT P6SM VCSH BKN045CB
     FM222000 26008KT P6SM VCTS OVC045CB
     FM230000 27007KT P6SM BKN025
     FM230200 28007KT P6SM SCT025
     FM230500 32007KT P6SM FEW030=



000
FTUS42 KFFC 220500
TAFATL
TAF
KATL 220522Z 2206/2312 25004KT P6SM FEW120
     FM221300 27007KT P6SM BKN050
     FM221500 28008KT P6SM VCSH BKN035
     FM221700 27008KT 6SM -SHRA OVC035 PROB30 2218/2221 3SM -TSRA
      BKN025CB
     FM222100 27009KT P6SM BKN035
     FM230000 27008KT P6SM SCT025
     FM230300 31008KT P6SM FEW030=



000
FTUS42 KFFC 220500
TAFAHN
TAF
KAHN 220522Z 2206/2306 00000KT P6SM FEW250
     FM221300 27007KT P6SM BKN050
     FM221500 30010KT P6SM VCSH BKN035
     FM221800 26008KT 6SM -SHRA OVC035 PROB30 2218/2221 3SM -TSRA BR
      BKN025CB
     FM222100 26009KT P6SM BKN035
     FM230000 26007KT P6SM BKN025
     FM230100 27007KT P6SM SCT025=



000
FTUS42 KFFC 220500
TAFMCN
TAF
KMCN 220522Z 2206/2306 00000KT P6SM FEW250
     FM221300 25006KT P6SM BKN110
     FM222000 28010KT P6SM VCTS BKN035CB
     FM230000 27007KT P6SM BKN025
     FM230200 27007KT P6SM SCT025=



000
FTUS42 KFFC 220500
TAFRYY
TAF
KRYY 220522Z 2206/2306 00000KT P6SM SCT250
     FM221100 00000KT P6SM OVC060
     FM221400 30007KT P6SM VCSH OVC035
     FM221600 29007KT 6SM -SHRA OVC035 PROB30 2217/2220 3SM -TSRA BR
      BKN025CB
     FM222100 27009KT P6SM BKN035
     FM222300 28009KT P6SM SCT035
     FM230300 32009KT P6SM FEW030
      AMD NOT SKED TIL 221200=



000
FTUS42 KFFC 220300 AAB
TAFATL
TAF AMD
KATL 220333Z 2204/2306 26004KT P6SM SCT140 BKN250
     FM220500 24004KT P6SM SCT070 BKN120
     FM220900 26005KT P6SM VCSH BKN060
     FM221400 27010KT 6SM -SHRA BR SCT025 BKN040 PROB30 2215/2219
      3SM -TSRA BKN025CB
     FM221900 30015G20KT 5SM -SHRA BR OVC025
     FM222300 31012KT P6SM SCT040 BKN070
     FM230300 32010KT P6SM SKC=



000
FTUS42 KFFC 220100 AAA
TAFRYY
TAF AMD
KRYY 220142Z 2202/2224 29003KT P6SM SCT150 BKN250
     FM220500 26003KT P6SM SCT060 BKN120
     FM220900 25003KT P6SM VCSH BKN060
     FM221400 27007KT 6SM -SHRA BR SCT025 BKN040 PROB30 2215/2219
      3SM -TSRA BKN025CB
     FM221900 30012G18KT 5SM -SHRA BR OVC025
     FM222300 31009KT P6SM SCT040 BKN070
      AMD NOT SKED 2204/2212=



000
FTUS42 KFFC 220100 AAA
TAFPDK
TAF AMD
KPDK 220141Z 2202/2224 28006KT P6SM SCT150 BKN250
     FM220500 24003KT P6SM SCT060 BKN150
     FM220900 26003KT P6SM VCSH BKN060
     FM221400 27007KT 6SM -SHRA BR SCT025 BKN040 PROB30 2215/2219
      3SM -TSRA BKN025CB
     FM221900 30012G18KT 5SM -SHRA BR OVC025
     FM222300 31009KT P6SM SCT040 BKN070=



000
FTUS42 KFFC 220100 AAA
TAFFTY
TAF AMD
KFTY 220140Z 2202/2224 25003KT P6SM SCT150 BKN250
     FM220500 24003KT P6SM SCT060 BKN120
     FM220900 26003KT P6SM VCSH BKN060
     FM221400 27007KT 6SM -SHRA BR SCT025 BKN040 PROB30 2215/2219
      3SM -TSRA BKN025CB
     FM221900 30012G18KT 5SM -SHRA BR OVC025
     FM222300 31009KT P6SM SCT040 BKN070=



000
FTUS42 KFFC 220100 AAA
TAFATL
TAF AMD
KATL 220139Z 2202/2306 24004KT P6SM SCT150 BKN250
     FM220500 24003KT P6SM SCT070 BKN120
     FM220900 26005KT P6SM VCSH BKN060
     FM221400 27010KT 6SM -SHRA BR SCT025 BKN040 PROB30 2215/2219
      3SM -TSRA BKN025CB
     FM221900 30015G20KT 5SM -SHRA BR OVC025
     FM222300 31012KT P6SM SCT040 BKN070
     FM230300 32010KT P6SM SKC=



000
FTUS42 KFFC 212300
TAFRYY
TAF
KRYY 212340Z 2200/2224 28006KT P6SM FEW070 SCT250
     FM220300 24003KT P6SM SCT060 BKN150
     FM220900 26003KT P6SM VCSH BKN060
     FM221400 27007KT 6SM -SHRA BR SCT025 BKN040 PROB30 2215/2219
      3SM -TSRA BKN025CB
     FM221900 30012G18KT 5SM -SHRA BR OVC025
     FM222300 31009KT P6SM SCT040 BKN070
      AMD NOT SKED 2204/2212=



000
FTUS42 KFFC 212300
TAFAHN
TAF
KAHN 212340Z 2200/2224 VRB04KT P6SM FEW070 SCT250
     FM220500 23003KT P6SM SCT060 BKN150
     FM221000 24003KT P6SM VCSH BKN060
     FM221500 27007KT 6SM -SHRA BR SCT025 BKN040 PROB30 2216/2219
      3SM -TSRA BKN025CB
     FM221900 28012G18KT 5SM -SHRA BR OVC025
     FM222300 30010KT P6SM SCT035 BKN060=



000
FTUS42 KFFC 212300
TAFATL
TAF
KATL 212340Z 2200/2306 27006KT P6SM FEW070 SCT250
     FM220300 24005KT P6SM SCT060 BKN120
     FM220900 26006KT P6SM VCSH BKN060
     FM221400 27010KT 6SM -SHRA BR SCT025 BKN040 PROB30 2215/2219
      3SM -TSRA BKN025CB
     FM221900 30015G20KT 5SM -SHRA BR OVC025
     FM222300 31012KT P6SM SCT040 BKN070
     FM230300 32010KT P6SM SKC=



000
FTUS42 KFFC 212300
TAFPDK
TAF
KPDK 212340Z 2200/2224 28006KT P6SM FEW070 SCT250
     FM220300 24003KT P6SM SCT060 BKN150
     FM220900 26003KT P6SM VCSH BKN060
     FM221400 27007KT 6SM -SHRA BR SCT025 BKN040 PROB30 2215/2219
      3SM -TSRA BKN025CB
     FM221900 30012G18KT 5SM -SHRA BR OVC025
     FM222300 31009KT P6SM SCT040 BKN070=



000
FTUS42 KFFC 212300
TAFMCN
TAF
KMCN 212340Z 2200/2224 28006KT P6SM SCT250
     FM220600 24003KT P6SM SCT080 BKN250
     FM221200 25005KT P6SM VCSH BKN070
     FM221600 26007KT 6SM -SHRA BR SCT025 BKN050 PROB30 2218/2222
      3SM -TSRA BKN025CB
     FM222200 29010G15KT 5SM -SHRA BR OVC035=



000
FTUS42 KFFC 212300
TAFCSG
TAF
KCSG 212340Z 2200/2224 28006KT P6SM SCT250
     FM220600 24003KT P6SM SCT080 BKN250
     FM221200 25005KT P6SM VCSH BKN070
     FM221600 26008KT 6SM -SHRA BR SCT025 BKN050 PROB30 2217/2221
      3SM -TSRA BKN025CB
     FM222100 29010G15KT 5SM -SHRA BR OVC025
     FM222300 30009KT P6SM VCSH BKN040=



000
FTUS42 KFFC 212300
TAFFTY
TAF
KFTY 212340Z 2200/2224 28006KT P6SM FEW070 SCT250
     FM220300 24003KT P6SM SCT060 BKN150
     FM220900 26003KT P6SM VCSH BKN060
     FM221400 27007KT 6SM -SHRA BR SCT025 BKN040 PROB30 2215/2219
      3SM -TSRA BKN025CB
     FM221900 30012G18KT 5SM -SHRA BR OVC025
     FM222300 31009KT P6SM SCT040 BKN070=



000
FTUS42 KFFC 212200 AAA
TAFRYY
TAF AMD
KRYY 212205Z 2122/2218 28005KT P6SM FEW070 SCT250
     FM220500 25004KT P6SM BKN070 BKN150
     FM221300 28007KT 6SM -SHRA BKN035 PROB30 2214/2217 3SM -TSRA
      BKN025CB
     FM221700 29012KT 5SM -SHRA BR OVC025=



000
FTUS42 KFFC 212200 AAA
TAFFTY
TAF AMD
KFTY 212204Z 2122/2218 27005KT P6SM FEW070 SCT250
     FM220600 24004KT P6SM BKN070 BKN150
     FM221300 27007KT 6SM -SHRA BKN035 PROB30 2214/2217 3SM -TSRA
      BKN025CB
     FM221700 29012KT 5SM -SHRA BR OVC025=



000
FTUS42 KFFC 212200 AAA
TAFPDK
TAF AMD
KPDK 212204Z 2122/2218 27005KT P6SM FEW070 SCT250
     FM220600 24004KT P6SM BKN070 BKN150
     FM221300 27007KT 6SM -SHRA BKN035 PROB30 2214/2217 3SM -TSRA
      BKN025CB
     FM221700 29012KT 5SM -SHRA BR OVC025=



000
FTUS42 KFFC 212100 AAB
TAFATL
TAF AMD
KATL 212157Z 2122/2224 28005KT P6SM FEW070 SCT250
     FM220500 24005KT P6SM BKN060 BKN120
     FM221300 27008KT 5SM -SHRA BKN025 PROB30 2214/2218 3SM TSRA
      BKN015CB
     FM221800 29015KT 5SM -SHRA BR OVC025
     FM222300 31012KT P6SM BKN035=



000
FTUS42 KFFC 211900 AAA
TAFATL
TAF AMD
KATL 211952Z 2120/2224 23006KT P6SM BKN250
     FM220500 27005KT P6SM BKN060 BKN120
     FM221300 28010KT 5SM -SHRA BKN025 PROB30 2214/2218 3SM TSRA
      BKN015CB
     FM221800 29015KT 5SM -SHRA BR OVC025
     FM222300 31012KT P6SM BKN035=



000
FTUS42 KFFC 211700
TAFRYY
TAF
KRYY 211736Z 2118/2218 21006KT P6SM SCT250
     FM220500 27004KT P6SM BKN060 BKN120
     FM221300 28008KT 5SM -SHRA BKN025 PROB30 2213/2217 3SM TSRA
      BKN015CB
     FM221700 29012KT 5SM -SHRA BR OVC025=



000
FTUS42 KFFC 211700
TAFMCN
TAF
KMCN 211736Z 2118/2218 VRB03KT P6SM SKC
     FM220100 24004KT P6SM BKN120
     FM221100 27005KT P6SM BKN045
     FM221600 28008KT 5SM -SHRA BKN025 PROB30 2216/2218 3SM TSRA
      BKN015CB=



000
FTUS42 KFFC 211700
TAFAHN
TAF
KAHN 211736Z 2118/2218 24004KT P6SM SCT250
     FM220500 27004KT P6SM BKN060 BKN120
     FM221100 27005KT P6SM BKN045
     FM221600 28008KT 5SM -SHRA BKN025 PROB30 2216/2218 3SM TSRA
      BKN015CB=



000
FTUS42 KFFC 211700
TAFFTY
TAF
KFTY 211736Z 2118/2218 23005KT P6SM SCT250
     FM220500 27004KT P6SM BKN060 BKN120
     FM221300 28008KT 5SM -SHRA BKN025 PROB30 2213/2217 3SM TSRA
      BKN015CB
     FM221700 29012KT 5SM -SHRA BR OVC025=



000
FTUS42 KFFC 211700
TAFPDK
TAF
KPDK 211736Z 2118/2218 24005KT P6SM SCT250
     FM220500 27004KT P6SM BKN060 BKN120
     FM221300 28008KT 5SM -SHRA BKN025 PROB30 2213/2217 3SM TSRA
      BKN015CB
     FM221700 29012KT 5SM -SHRA BR OVC025=



000
FTUS42 KFFC 211700
TAFATL
TAF
KATL 211736Z 2118/2224 23006KT P6SM SCT250
     FM220500 27005KT P6SM BKN060 BKN120
     FM221300 28010KT 5SM -SHRA BKN025 PROB30 2214/2218 3SM TSRA
      BKN015CB
     FM221800 29015KT 5SM -SHRA BR OVC025
     FM222300 31012KT P6SM BKN035=



000
FTUS42 KFFC 211700
TAFCSG
TAF
KCSG 211736Z 2118/2218 VRB03KT P6SM SKC
     FM220100 24004KT P6SM BKN120
     FM221100 27005KT P6SM BKN045
     FM221600 28008KT 5SM -SHRA BKN025 PROB30 2216/2218 3SM TSRA
      BKN015CB=



000
FTUS42 KFFC 211500 AAB
TAFATL
TAF AMD
KATL 211558Z 2116/2218 17005KT P6SM BKN250
     FM211800 21006KT P6SM FEW050 SCT120
     FM220300 27005KT P6SM SCT050 BKN120
     FM221300 28009KT 6SM -SHRA BKN040 PROB30 2213/2218 3SM TSRA
      BKN025CB=



000
FTUS42 KFFC 211300 AAA
TAFATL
TAF AMD
KATL 211359Z 2114/2218 11008KT P6SM BKN250
     FM211700 24006KT P6SM FEW050 SCT120
     FM220300 27005KT P6SM SCT050 BKN120
     FM221300 28009KT 6SM -SHRA BKN040 PROB30 2213/2218 3SM TSRA
      BKN025CB=



000
FTUS42 KFFC 211100
TAFPDK
TAF
KPDK 211127Z 2112/2212 00000KT P6SM FEW250
     FM211500 14003KT P6SM FEW050 SCT120
     FM211700 17006KT P6SM FEW050 SCT120
     FM220300 25005KT P6SM SCT050 BKN120=



000
FTUS42 KFFC 211100
TAFCSG
TAF
KCSG 211127Z 2112/2212 VRB03KT P6SM FEW250
     FM211400 12003KT P6SM FEW120
     FM211500 21005KT P6SM FEW050 SCT120
     FM220800 27003KT P6SM BKN050=



000
FTUS42 KFFC 211100
TAFMCN
TAF
KMCN 211127Z 2112/2212 VRB03KT P6SM FEW250
     FM212000 33004KT P6SM FEW120
     FM220200 24003KT P6SM BKN120=



000
FTUS42 KFFC 211100
TAFATL
TAF
KATL 211127Z 2112/2218 04003KT P6SM FEW250
     FM211500 15003KT P6SM FEW050 SCT120
     FM211700 24006KT P6SM FEW050 SCT120
     FM220300 27005KT P6SM SCT050 BKN120
     FM221300 28009KT 6SM -SHRA BKN040 PROB30 2213/2218 3SM TSRA
      BKN025CB=



000
FTUS42 KFFC 211100
TAFRYY
TAF
KRYY 211127Z 2112/2212 00000KT P6SM FEW250
     FM211500 12003KT P6SM FEW050 SCT120
     FM211700 21006KT P6SM FEW050 SCT120
     FM220300 24005KT P6SM SCT050 BKN120=



000
FTUS42 KFFC 211100
TAFFTY
TAF
KFTY 211127Z 2112/2212 00000KT P6SM FEW250
     FM211500 15003KT P6SM FEW050 SCT120
     FM211700 21006KT P6SM FEW050 SCT120
     FM220300 25005KT P6SM SCT050 BKN120=



000
FTUS42 KFFC 211100
TAFAHN
TAF
KAHN 211127Z 2112/2212 01003KT P6SM FEW250
     FM211800 28003KT P6SM FEW050 SCT120
     FM212300 23004KT P6SM SCT050 BKN120
     FM221100 27005KT P6SM BKN090=



000
FTUS42 KFFC 210900 AAB
TAFATL
TAF AMD
KATL 210934Z 2110/2212 09005KT P6SM SCT250
     FM211500 17006KT P6SM FEW050 SCT120
     FM211700 24006KT P6SM FEW050 SCT120
     FM220300 27006KT P6SM SCT050 BKN120=



000
FTUS42 KFFC 210700 AAA
TAFATL
TAF AMD
KATL 210730Z 2108/2212 09005KT P6SM SCT250
     FM211500 17006KT P6SM FEW050 SCT120
     FM211700 24006KT P6SM FEW050 SCT120
     FM220300 27006KT P6SM SCT050 BKN120=



000
FTUS42 KFFC 210500
TAFFTY
TAF
KFTY 210522Z 2106/2206 00000KT P6SM FEW250
     FM211500 19006KT P6SM FEW050 SCT120
     FM211700 26006KT P6SM FEW050 SCT120
     FM220300 23004KT P6SM SCT050 BKN120=



000
FTUS42 KFFC 210500
TAFATL
TAF
KATL 210522Z 2106/2212 09006KT P6SM SCT250
     FM211500 17006KT P6SM FEW050 SCT120
     FM211700 24006KT P6SM FEW050 SCT120
     FM220300 27006KT P6SM SCT050 BKN120=



000
FTUS42 KFFC 210500
TAFRYY
TAF
KRYY 210522Z 2106/2206 00000KT P6SM FEW250
     FM211500 14006KT P6SM FEW050 SCT120
     FM211700 24006KT P6SM FEW050 SCT120
     FM220300 23004KT P6SM SCT050 BKN120
      AMD NOT SKED TIL 211200=



000
FTUS42 KFFC 210500
TAFAHN
TAF
KAHN 210522Z 2106/2206 05005KT P6SM FEW250
     FM211200 01003KT P6SM FEW250
     FM211500 28006KT P6SM FEW050 SCT120
     FM212300 23004KT P6SM FEW120=



000
FTUS42 KFFC 210500
TAFPDK
TAF
KPDK 210522Z 2106/2206 00000KT P6SM FEW250
     FM211500 19006KT P6SM FEW050 SCT120
     FM211700 24006KT P6SM FEW050 SCT120
     FM220300 26004KT P6SM SCT050 BKN120=



000
FTUS42 KFFC 210500
TAFCSG
TAF
KCSG 210522Z 2106/2206 00000KT P6SM FEW250
     FM211800 27004KT P6SM FEW050 SCT120
     FM220200 24003KT P6SM SKC=



000
FTUS42 KFFC 210500
TAFMCN
TAF
KMCN 210522Z 2106/2206 04003KT P6SM FEW250
     FM211800 27004KT P6SM FEW050 SCT120
     FM220200 24003KT P6SM SKC=



000
FTUS42 KFFC 210300 AAB
TAFATL
TAF AMD
KATL 210347Z 2104/2206 09004KT P6SM SCT250
     FM211700 26006KT P6SM SCT120=



000
FTUS42 KFFC 210200 AAA
TAFATL
TAF AMD
KATL 210223Z 2102/2206 07008KT P6SM FEW250
     FM210900 06004KT P6SM SCT250
     FM211700 26006KT P6SM SCT120=



    US Dept of Commerce
    National Oceanic and Atmospheric Administration
    National Weather Service
    1325 East West Highway
    Silver Spring, MD 20910
    Page Author: NWS Internet Services Team
Disclaimer
Information Quality
Credits
Glossary
Privacy Policy
Freedom of Information Act (FOIA)
About Us
Career Opportunities